createdAt,value
2023-02-01T00:01:28.109Z,77.20
2023-02-01T00:03:56.372Z,77.30
2023-02-01T00:06:24.689Z,77.30
2023-02-01T00:08:55.300Z,77.40
2023-02-01T00:11:25.709Z,77.50
2023-02-01T00:13:53.957Z,77.30
2023-02-01T00:16:24.901Z,77.20
2023-02-01T00:18:54.625Z,77.20
2023-02-01T00:21:23.501Z,77.30
2023-02-01T00:23:51.724Z,77.30
2023-02-01T00:26:21.623Z,77.20
2023-02-01T00:28:51.257Z,77.30
2023-02-01T00:31:19.508Z,77.40
2023-02-01T00:33:49.726Z,77.50
2023-02-01T00:36:18.407Z,77.70
2023-02-01T00:38:46.647Z,77.80
2023-02-01T00:41:16.806Z,77.80
2023-02-01T00:43:45.306Z,77.80
2023-02-01T00:46:16.655Z,78.00
2023-02-01T00:48:45.058Z,78.00
2023-02-01T00:51:15.716Z,78.00
2023-02-01T00:53:44.000Z,78.20
2023-02-01T00:56:12.315Z,78.00
2023-02-01T00:58:41.068Z,78.10
2023-02-01T01:01:11.188Z,78.00
2023-02-01T01:03:43.510Z,78.00
2023-02-01T01:06:13.955Z,78.10
2023-02-01T01:08:43.170Z,78.00
2023-02-01T01:11:13.090Z,78.10
2023-02-01T01:13:41.713Z,78.30
2023-02-01T01:16:11.685Z,78.30
2023-02-01T01:18:41.813Z,78.30
2023-02-01T01:21:11.668Z,78.40
2023-02-01T01:23:40.119Z,78.30
2023-02-01T01:26:08.996Z,78.30
2023-02-01T01:28:37.398Z,78.10
2023-02-01T01:31:06.035Z,78.10
2023-02-01T01:33:34.372Z,78.30
2023-02-01T01:36:04.046Z,78.30
2023-02-01T01:38:32.366Z,78.30
2023-02-01T01:41:00.663Z,78.20
2023-02-01T01:43:48.539Z,78.20
2023-02-01T01:46:19.420Z,78.50
2023-02-01T01:48:49.215Z,78.20
2023-02-01T01:51:21.588Z,78.30
2023-02-01T01:53:55.623Z,78.40
2023-02-01T01:56:24.947Z,78.40
2023-02-01T01:58:54.937Z,78.30
2023-02-01T02:01:23.221Z,78.40
2023-02-01T02:03:52.298Z,78.30
2023-02-01T02:06:34.958Z,78.30
2023-02-01T02:09:05.960Z,78.40
2023-02-01T02:11:35.226Z,78.30
2023-02-01T02:14:05.434Z,78.30
2023-02-01T02:17:13.588Z,78.30
2023-02-01T02:20:29.927Z,78.70
2023-02-01T02:23:41.940Z,78.70
2023-02-01T02:26:34.011Z,78.50
2023-02-01T02:29:41.878Z,78.30
2023-02-01T02:32:35.195Z,78.30
2023-02-01T02:35:10.013Z,79.00
2023-02-01T02:37:43.502Z,78.00
2023-02-01T02:40:22.004Z,78.00
2023-02-01T02:43:18.750Z,78.20
2023-02-01T02:46:10.871Z,78.00
2023-02-01T02:48:45.378Z,77.90
2023-02-01T02:51:35.393Z,77.80
2023-02-01T02:54:26.708Z,77.70
2023-02-01T02:57:16.283Z,77.60
2023-02-01T03:00:04.242Z,77.50
2023-02-01T03:02:50.456Z,77.50
2023-02-01T03:05:18.848Z,77.30
2023-02-01T03:08:12.816Z,77.20
2023-02-01T03:10:52.819Z,77.10
2023-02-01T03:13:28.692Z,77.00
2023-02-01T03:16:02.965Z,77.00
2023-02-01T03:18:41.280Z,77.00
2023-02-01T03:21:12.730Z,76.90
2023-02-01T03:23:43.957Z,76.90
2023-02-01T03:26:16.209Z,76.80
2023-02-01T03:28:50.767Z,76.70
2023-02-01T03:31:19.221Z,76.60
2023-02-01T03:33:47.555Z,76.50
2023-02-01T03:36:27.123Z,76.40
2023-02-01T03:39:04.730Z,76.20
2023-02-01T03:41:40.730Z,76.10
2023-02-01T03:44:15.995Z,76.00
2023-02-01T03:46:49.150Z,75.90
2023-02-01T03:49:23.009Z,75.80
2023-02-01T03:51:53.544Z,75.70
2023-02-01T03:54:23.826Z,75.70
2023-02-01T03:57:00.218Z,75.60
2023-02-01T03:59:28.709Z,75.40
2023-02-01T04:01:57.018Z,75.40
2023-02-01T04:04:25.258Z,75.40
2023-02-01T04:06:53.655Z,75.30
2023-02-01T04:09:23.441Z,75.10
2023-02-01T04:11:51.791Z,74.90
2023-02-01T04:14:20.217Z,75.00
2023-02-01T04:16:48.678Z,74.80
2023-02-01T04:19:17.118Z,74.70
2023-02-01T04:21:45.508Z,74.60
2023-02-01T04:24:13.915Z,74.50
2023-02-01T04:26:44.230Z,74.40
2023-02-01T04:29:12.876Z,74.30
2023-02-01T04:31:41.409Z,74.20
2023-02-01T04:34:09.758Z,74.10
2023-02-01T04:36:38.042Z,74.00
2023-02-01T04:39:06.330Z,74.00
2023-02-01T04:41:34.614Z,73.90
2023-02-01T04:44:04.334Z,73.80
2023-02-01T04:46:32.748Z,73.70
2023-02-01T04:49:01.179Z,73.80
2023-02-01T04:51:29.491Z,73.70
2023-02-01T04:53:57.847Z,73.70
2023-02-01T04:56:26.197Z,73.60
2023-02-01T04:58:54.536Z,73.60
2023-02-01T05:01:25.714Z,73.50
2023-02-01T05:03:54.071Z,73.40
2023-02-01T05:06:22.563Z,73.50
2023-02-01T05:08:50.991Z,73.40
2023-02-01T05:11:33.117Z,73.30
2023-02-01T05:14:02.658Z,73.20
2023-02-01T05:16:32.578Z,73.20
2023-02-01T05:19:00.958Z,73.00
2023-02-01T05:21:29.224Z,73.00
2023-02-01T05:24:14.159Z,72.90
2023-02-01T05:26:43.057Z,72.90
2023-02-01T05:29:12.063Z,72.80
2023-02-01T05:31:41.930Z,72.80
2023-02-01T05:34:10.244Z,72.90
2023-02-01T05:36:38.507Z,73.00
2023-02-01T05:39:06.848Z,73.00
2023-02-01T05:41:35.073Z,73.00
2023-02-01T05:44:03.737Z,73.10
2023-02-01T05:46:32.367Z,73.10
2023-02-01T05:49:02.032Z,73.20
2023-02-01T05:51:30.268Z,73.10
2023-02-01T05:53:58.763Z,73.20
2023-02-01T05:56:27.044Z,73.20
2023-02-01T05:58:55.924Z,73.20
2023-02-01T06:01:24.200Z,73.20
2023-02-01T06:03:52.452Z,73.20
2023-02-01T06:06:22.313Z,73.10
2023-02-01T06:08:50.585Z,73.20
2023-02-01T06:11:31.724Z,73.40
2023-02-01T06:14:01.039Z,73.40
2023-02-01T06:16:29.572Z,73.40
2023-02-01T06:18:57.841Z,73.40
2023-02-01T06:21:27.603Z,73.40
2023-02-01T06:23:58.611Z,73.40
2023-02-01T06:26:27.142Z,73.40
2023-02-01T06:28:56.225Z,73.30
2023-02-01T06:31:26.351Z,73.30
2023-02-01T06:33:54.706Z,73.30
2023-02-01T06:36:23.572Z,73.30
2023-02-01T06:38:53.303Z,73.20
2023-02-01T06:41:21.956Z,73.20
2023-02-01T06:43:50.187Z,73.20
2023-02-01T06:46:18.499Z,73.30
2023-02-01T06:48:47.497Z,73.40
2023-02-01T06:51:27.138Z,73.40
2023-02-01T06:53:56.912Z,73.30
2023-02-01T06:56:25.543Z,73.40
2023-02-01T06:58:53.785Z,73.40
2023-02-01T07:01:22.916Z,73.40
2023-02-01T07:03:52.146Z,73.40
2023-02-01T07:06:20.898Z,73.40
2023-02-01T07:08:49.097Z,73.30
2023-02-01T07:11:20.969Z,73.20
2023-02-01T07:13:49.301Z,73.20
2023-02-01T07:16:19.741Z,73.20
2023-02-01T07:18:48.828Z,73.10
2023-02-01T07:21:17.037Z,73.10
2023-02-01T07:23:45.262Z,73.00
2023-02-01T07:26:15.173Z,73.00
2023-02-01T07:28:45.071Z,72.90
2023-02-01T07:31:16.345Z,72.80
2023-02-01T07:33:44.597Z,72.80
2023-02-01T07:36:15.253Z,72.80
2023-02-01T07:38:43.753Z,72.80
2023-02-01T07:41:12.582Z,72.80
2023-02-01T07:43:40.922Z,72.80
2023-02-01T07:46:12.198Z,72.80
2023-02-01T07:48:40.590Z,72.70
2023-02-01T07:51:12.279Z,72.70
2023-02-01T07:53:41.072Z,72.60
2023-02-01T07:56:14.019Z,72.60
2023-02-01T07:58:42.526Z,72.40
2023-02-01T08:01:21.993Z,72.50
2023-02-01T08:03:51.794Z,72.30
2023-02-01T08:06:21.048Z,72.40
2023-02-01T08:08:49.414Z,72.30
2023-02-01T08:11:18.895Z,72.30
2023-02-01T08:13:47.653Z,72.20
2023-02-01T08:16:18.727Z,72.10
2023-02-01T08:18:48.088Z,71.80
2023-02-01T08:21:18.409Z,71.80
2023-02-01T08:23:47.362Z,71.70
2023-02-01T08:26:17.769Z,71.70
2023-02-01T08:28:48.763Z,71.60
2023-02-01T08:31:20.811Z,71.40
2023-02-01T08:33:53.977Z,71.30
2023-02-01T08:36:23.033Z,71.30
2023-02-01T08:38:51.685Z,71.30
2023-02-01T08:41:21.621Z,71.20
2023-02-01T08:43:49.991Z,71.10
2023-02-01T08:46:21.325Z,71.10
2023-02-01T08:48:50.492Z,70.90
2023-02-01T08:51:21.215Z,71.00
2023-02-01T08:53:50.305Z,70.90
2023-02-01T08:56:19.802Z,70.90
2023-02-01T08:58:48.037Z,70.90
2023-02-01T09:01:18.326Z,70.90
2023-02-01T09:03:48.128Z,70.70
2023-02-01T09:06:17.609Z,70.80
2023-02-01T09:08:46.219Z,70.80
2023-02-01T09:11:17.873Z,70.70
2023-02-01T09:13:46.320Z,70.70
2023-02-01T09:16:14.845Z,70.80
2023-02-01T09:18:55.578Z,70.60
2023-02-01T09:21:34.377Z,70.50
2023-02-01T09:24:02.715Z,70.40
2023-02-01T09:26:32.680Z,70.40
2023-02-01T09:29:01.569Z,70.40
2023-02-01T09:31:30.067Z,70.30
2023-02-01T09:33:58.633Z,70.30
2023-02-01T09:36:27.624Z,70.20
2023-02-01T09:38:59.182Z,70.40
2023-02-01T09:41:39.432Z,70.20
2023-02-01T09:44:17.223Z,70.20
2023-02-01T09:46:45.603Z,70.20
2023-02-01T09:49:18.248Z,70.40
2023-02-01T09:51:50.697Z,70.20
2023-02-01T09:54:24.191Z,70.30
2023-02-01T09:56:57.340Z,70.20
2023-02-01T09:59:35.664Z,70.20
2023-02-01T10:02:05.779Z,70.10
2023-02-01T10:04:34.743Z,70.20
2023-02-01T10:07:20.537Z,70.20
2023-02-01T10:10:00.565Z,69.90
2023-02-01T10:12:54.481Z,70.00
2023-02-01T10:15:34.226Z,69.70
2023-02-01T10:18:26.193Z,69.90
2023-02-01T10:21:03.732Z,69.80
2023-02-01T10:23:51.030Z,69.90
2023-02-01T10:26:24.212Z,69.70
2023-02-01T10:28:53.092Z,69.90
2023-02-01T10:31:23.116Z,70.40
2023-02-01T10:33:54.763Z,70.10
2023-02-01T10:36:28.175Z,69.90
2023-02-01T10:38:59.533Z,69.90
2023-02-01T10:41:35.089Z,70.60
2023-02-01T10:44:06.866Z,69.70
2023-02-01T10:46:36.477Z,69.80
2023-02-01T10:49:07.630Z,69.80
2023-02-01T10:51:45.597Z,69.90
2023-02-01T10:54:18.858Z,69.70
2023-02-01T10:56:48.800Z,69.80
2023-02-01T10:59:20.203Z,70.20
2023-02-01T11:01:50.257Z,69.80
2023-02-01T11:04:21.138Z,69.70
2023-02-01T11:06:51.488Z,69.60
2023-02-01T11:09:27.927Z,69.60
2023-02-01T11:12:00.111Z,69.60
2023-02-01T11:14:40.157Z,69.50
2023-02-01T11:17:29.345Z,69.20
2023-02-01T11:20:02.842Z,69.30
2023-02-01T11:22:31.844Z,69.40
2023-02-01T11:25:03.737Z,69.50
2023-02-01T11:27:40.348Z,69.40
2023-02-01T11:30:19.100Z,69.30
2023-02-01T11:32:49.898Z,69.10
2023-02-01T11:35:21.669Z,69.10
2023-02-01T11:37:56.778Z,69.00
2023-02-01T11:40:28.673Z,68.90
2023-02-01T11:43:00.684Z,69.00
2023-02-01T11:45:30.459Z,69.00
2023-02-01T11:48:00.563Z,69.10
2023-02-01T11:50:36.706Z,69.00
2023-02-01T11:53:28.075Z,68.80
2023-02-01T11:56:04.282Z,68.50
2023-02-01T11:59:11.202Z,68.80
2023-02-01T12:01:56.262Z,68.50
2023-02-01T12:04:52.832Z,68.80
2023-02-01T12:07:26.921Z,69.20
2023-02-01T12:10:07.011Z,68.70
2023-02-01T12:12:43.701Z,68.30
2023-02-01T12:15:30.705Z,68.60
2023-02-01T12:18:15.576Z,68.40
2023-02-01T12:21:00.926Z,68.50
2023-02-01T12:23:59.780Z,68.30
2023-02-01T12:26:49.171Z,68.30
2023-02-01T12:29:36.223Z,68.30
2023-02-01T12:32:15.682Z,68.20
2023-02-01T12:35:22.741Z,68.20
2023-02-01T12:38:09.573Z,67.90
2023-02-01T12:40:49.856Z,68.10
2023-02-01T12:43:26.151Z,68.20
2023-02-01T12:46:00.019Z,68.20
2023-02-01T12:48:34.340Z,68.00
2023-02-01T12:51:06.767Z,67.90
2023-02-01T12:53:47.055Z,67.90
2023-02-01T12:56:24.235Z,67.70
2023-02-01T12:58:55.778Z,67.80
2023-02-01T13:01:29.688Z,67.90
2023-02-01T13:04:10.611Z,67.80
2023-02-01T13:06:44.247Z,67.60
2023-02-01T13:09:21.208Z,67.70
2023-02-01T13:11:51.703Z,67.50
2023-02-01T13:14:29.670Z,67.60
2023-02-01T13:17:02.452Z,67.40
2023-02-01T13:19:41.673Z,67.30
2023-02-01T13:22:15.158Z,67.10
2023-02-01T13:24:47.364Z,67.00
2023-02-01T13:27:16.652Z,66.70
2023-02-01T13:29:52.500Z,66.80
2023-02-01T13:33:37.301Z,66.70
2023-02-01T13:36:18.259Z,66.30
2023-02-01T13:39:14.590Z,66.30
2023-02-01T13:41:51.687Z,66.10
2023-02-01T13:44:26.696Z,66.30
2023-02-01T13:46:59.113Z,66.00
2023-02-01T13:49:30.923Z,65.80
2023-02-01T13:52:04.151Z,66.00
2023-02-01T13:54:34.127Z,66.00
2023-02-01T13:57:04.021Z,66.10
2023-02-01T13:59:53.671Z,65.80
2023-02-01T14:02:52.070Z,65.30
2023-02-01T14:05:58.856Z,65.20
2023-02-01T14:08:45.040Z,65.20
2023-02-01T14:11:43.798Z,65.50
2023-02-01T14:14:47.062Z,65.40
2023-02-01T14:17:37.270Z,65.30
2023-02-01T14:20:42.026Z,65.50
2023-02-01T14:23:16.254Z,65.40
2023-02-01T14:25:46.550Z,65.80
2023-02-01T14:28:26.453Z,66.00
2023-02-01T14:30:56.760Z,65.80
2023-02-01T14:33:28.316Z,66.10
2023-02-01T14:36:10.436Z,66.10
2023-02-01T14:38:40.969Z,65.80
2023-02-01T14:41:29.063Z,66.00
2023-02-01T14:44:25.543Z,65.60
2023-02-01T14:47:22.386Z,65.60
2023-02-01T14:49:56.390Z,65.70
2023-02-01T14:52:31.788Z,65.90
2023-02-01T14:55:06.448Z,65.80
2023-02-01T14:57:39.890Z,65.70
2023-02-01T15:00:21.052Z,65.70
2023-02-01T15:02:51.679Z,65.60
2023-02-01T15:05:31.934Z,65.70
2023-02-01T15:08:07.866Z,65.60
2023-02-01T15:10:45.441Z,65.80
2023-02-01T15:13:26.620Z,65.90
2023-02-01T15:16:08.161Z,66.00
2023-02-01T15:18:36.541Z,66.20
2023-02-01T15:21:26.390Z,66.40
2023-02-01T15:24:12.876Z,66.50
2023-02-01T15:26:41.162Z,66.60
2023-02-01T15:29:16.094Z,66.90
2023-02-01T15:31:46.800Z,66.90
2023-02-01T15:34:15.591Z,67.10
2023-02-01T15:37:01.877Z,67.40
2023-02-01T15:39:32.483Z,67.60
2023-02-01T15:42:04.096Z,67.80
2023-02-01T15:44:41.276Z,68.00
2023-02-01T15:47:16.225Z,68.30
2023-02-01T15:49:48.022Z,68.70
2023-02-01T15:52:28.866Z,68.70
2023-02-01T15:55:02.898Z,68.90
2023-02-01T15:57:52.162Z,68.90
2023-02-01T16:04:19.273Z,69.60
2023-02-01T16:06:50.252Z,69.70
2023-02-01T16:09:20.627Z,69.60
2023-02-01T16:11:58.640Z,69.70
2023-02-01T16:14:27.841Z,70.00
2023-02-01T16:16:59.580Z,69.90
2023-02-01T16:19:29.799Z,70.20
2023-02-01T16:21:59.288Z,70.30
2023-02-01T16:24:27.830Z,70.50
2023-02-01T16:26:56.443Z,70.60
2023-02-01T16:29:26.038Z,70.70
2023-02-01T16:31:54.871Z,70.80
2023-02-01T16:34:23.378Z,70.90
2023-02-01T16:36:54.563Z,70.90
2023-02-01T16:39:23.295Z,71.80
2023-02-01T16:41:54.720Z,71.70
2023-02-01T16:44:23.060Z,71.00
2023-02-01T16:46:51.331Z,71.00
2023-02-01T16:49:21.919Z,71.10
2023-02-01T16:51:54.891Z,71.30
2023-02-01T16:54:23.694Z,71.30
2023-02-01T16:56:51.931Z,71.50
2023-02-01T16:59:20.101Z,71.50
2023-02-01T17:01:48.288Z,71.60
2023-02-01T17:04:17.579Z,71.70
2023-02-01T17:06:48.278Z,71.70
2023-02-01T17:09:17.886Z,71.80
2023-02-01T17:11:46.128Z,72.00
2023-02-01T17:14:18.527Z,71.90
2023-02-01T17:16:49.525Z,72.10
2023-02-01T17:19:20.377Z,72.00
2023-02-01T17:21:51.680Z,72.10
2023-02-01T17:24:27.109Z,72.20
2023-02-01T17:26:57.089Z,72.30
2023-02-01T17:29:26.902Z,72.20
2023-02-01T17:31:57.086Z,72.30
2023-02-01T17:34:25.355Z,72.30
2023-02-01T17:36:53.558Z,72.40
2023-02-01T17:39:40.897Z,72.50
2023-02-01T17:42:12.991Z,72.80
2023-02-01T17:44:41.215Z,72.70
2023-02-01T17:47:09.497Z,72.60
2023-02-01T17:49:40.969Z,72.50
2023-02-01T17:52:16.028Z,72.60
2023-02-01T17:54:47.724Z,72.60
2023-02-01T17:57:16.079Z,72.60
2023-02-01T17:59:44.354Z,72.60
2023-02-01T18:02:20.541Z,72.60
2023-02-01T18:04:49.379Z,73.00
2023-02-01T18:07:17.745Z,72.90
2023-02-01T18:09:47.337Z,72.90
2023-02-01T18:12:20.044Z,73.00
2023-02-01T18:14:48.330Z,73.20
2023-02-01T18:17:16.750Z,73.20
2023-02-01T18:19:44.958Z,73.30
2023-02-01T18:22:18.716Z,73.40
2023-02-01T18:24:48.392Z,73.50
2023-02-01T18:27:16.703Z,73.60
2023-02-01T18:29:44.920Z,73.60
2023-02-01T18:32:13.148Z,73.70
2023-02-01T18:34:41.351Z,73.80
2023-02-01T18:37:09.784Z,73.90
2023-02-01T18:39:39.476Z,74.00
2023-02-01T18:42:12.085Z,74.10
2023-02-01T18:44:40.311Z,74.40
2023-02-01T18:47:08.668Z,74.10
2023-02-01T18:49:37.893Z,74.30
2023-02-01T18:52:07.099Z,74.40
2023-02-01T18:54:35.325Z,74.40
2023-02-01T18:57:03.544Z,74.30
2023-02-01T18:59:33.169Z,74.30
2023-02-01T19:02:03.178Z,74.30
2023-02-01T19:04:31.423Z,74.10
2023-02-01T19:07:01.171Z,74.30
2023-02-01T19:09:32.211Z,74.20
2023-02-01T19:12:00.529Z,74.10
2023-02-01T19:14:28.774Z,74.30
2023-02-01T19:16:58.468Z,74.30
2023-02-01T19:19:27.601Z,74.30
2023-02-01T19:21:55.808Z,74.30
2023-02-01T19:24:27.998Z,74.20
2023-02-01T19:26:56.858Z,74.20
2023-02-01T19:29:25.395Z,74.10
2023-02-01T19:31:53.775Z,74.20
2023-02-01T19:34:23.443Z,74.20
2023-02-01T19:36:52.648Z,74.20
2023-02-01T19:39:22.167Z,74.10
2023-02-01T19:41:50.469Z,74.80
2023-02-01T19:44:18.820Z,74.10
2023-02-01T19:46:47.691Z,74.40
2023-02-01T19:49:16.166Z,74.20
2023-02-01T19:51:45.856Z,74.20
2023-02-01T19:54:14.258Z,74.10
2023-02-01T19:56:43.697Z,74.10
2023-02-01T19:59:13.103Z,74.00
2023-02-01T20:01:41.591Z,74.00
2023-02-01T20:04:11.552Z,74.00
2023-02-01T20:06:47.493Z,73.90
2023-02-01T20:09:18.367Z,73.90
2023-02-01T20:11:48.423Z,73.90
2023-02-01T20:14:16.833Z,73.70
2023-02-01T20:16:46.611Z,73.70
2023-02-01T20:19:18.027Z,73.80
2023-02-01T20:21:46.829Z,73.80
2023-02-01T20:24:18.484Z,73.80
2023-02-01T20:26:50.154Z,73.70
2023-02-01T20:29:18.873Z,73.60
2023-02-01T20:31:47.960Z,73.50
2023-02-01T20:34:16.455Z,74.10
2023-02-01T20:36:44.768Z,73.40
2023-02-01T20:39:13.386Z,73.40
2023-02-01T20:41:43.669Z,73.40
2023-02-01T20:44:14.099Z,73.30
2023-02-01T20:46:42.851Z,73.30
2023-02-01T20:49:11.289Z,73.20
2023-02-01T20:51:39.651Z,73.00
2023-02-01T20:54:07.985Z,72.90
2023-02-01T20:56:36.931Z,73.00
2023-02-01T20:59:11.793Z,73.00
2023-02-01T21:01:52.931Z,72.70
2023-02-01T21:04:22.823Z,72.50
2023-02-01T21:06:51.494Z,72.30
2023-02-01T21:09:19.849Z,72.00
2023-02-01T21:11:48.321Z,71.90
2023-02-01T21:14:18.255Z,71.80
2023-02-01T21:16:46.518Z,71.60
2023-02-01T21:19:14.729Z,71.70
2023-02-01T21:21:43.713Z,71.70
2023-02-01T21:24:11.994Z,71.90
2023-02-01T21:26:42.101Z,71.90
2023-02-01T21:29:11.567Z,71.90
2023-02-01T21:31:43.154Z,71.90
2023-02-01T21:34:11.675Z,72.00
2023-02-01T21:36:39.909Z,72.00
2023-02-01T21:39:11.657Z,72.00
2023-02-01T21:41:57.799Z,72.10
2023-02-01T21:44:26.075Z,72.20
2023-02-01T21:46:56.477Z,72.30
2023-02-01T21:49:26.254Z,73.20
2023-02-01T21:51:54.749Z,73.10
2023-02-01T21:54:23.149Z,72.50
2023-02-01T21:56:51.411Z,72.60
2023-02-01T21:59:19.960Z,72.60
2023-02-01T22:01:48.343Z,72.70
2023-02-01T22:04:18.283Z,72.90
2023-02-01T22:06:47.383Z,72.90
2023-02-01T22:09:18.352Z,72.90
2023-02-01T22:11:46.964Z,73.00
2023-02-01T22:14:15.959Z,73.10
2023-02-01T22:16:44.236Z,73.10
2023-02-01T22:19:13.822Z,73.10
2023-02-01T22:21:45.684Z,73.30
2023-02-01T22:24:15.466Z,73.50
2023-02-01T22:26:44.454Z,73.40
2023-02-01T22:29:14.696Z,73.30
2023-02-01T22:31:43.478Z,72.90
2023-02-01T22:34:12.460Z,72.40
2023-02-01T22:36:42.462Z,72.00
2023-02-01T22:39:11.062Z,71.70
2023-02-01T22:41:39.280Z,71.60
2023-02-01T22:44:07.871Z,71.40
2023-02-01T22:46:36.123Z,71.60
2023-02-01T22:49:05.134Z,71.70
2023-02-01T22:51:34.951Z,71.80
2023-02-01T22:54:04.692Z,72.00
2023-02-01T22:56:34.400Z,72.20
2023-02-01T22:59:04.482Z,72.50
2023-02-01T23:01:33.632Z,72.70
2023-02-01T23:04:02.892Z,72.90
2023-02-01T23:06:31.752Z,73.20
2023-02-01T23:09:01.622Z,73.50
2023-02-01T23:11:31.548Z,73.60
2023-02-01T23:13:59.759Z,73.90
2023-02-01T23:16:28.086Z,73.80
2023-02-01T23:18:56.688Z,74.00
2023-02-01T23:21:25.480Z,74.10
2023-02-01T23:23:56.007Z,74.20
2023-02-01T23:26:26.028Z,74.30
2023-02-01T23:28:57.157Z,74.30
2023-02-01T23:31:27.302Z,74.50
2023-02-01T23:33:56.661Z,74.40
2023-02-01T23:36:26.331Z,74.50
2023-02-01T23:38:54.834Z,74.60
2023-02-01T23:41:24.526Z,74.60
2023-02-01T23:43:57.943Z,74.70
2023-02-01T23:46:29.409Z,74.50
2023-02-01T23:48:58.352Z,74.70
2023-02-01T23:51:27.192Z,74.60
2023-02-01T23:53:55.668Z,74.50
2023-02-01T23:56:26.553Z,74.60
2023-02-01T23:58:56.854Z,74.70
